Terminal Aerodrome Forecast
Issued by NWS

Home | Current Version | Previous Version | Text Only | Print | Product List | Glossary On
Versions: 1 2 3 4 5 6 7 8 9 10 11 12 13 14 15 16 17 18 19 20 21 22 23
802
FTUS43 KDLH 281101 AAE
TAFHIB
TAF AMD
KHIB 281101Z 2811/2906 VRB02KT 1/4SM FG SCT002
      TEMPO 2812/2814 2SM BR
     FM281400 00000KT P6SM SCT002
     FM281500 08005KT P6SM SCT040=

USA.gov is the U.S. government's official web portal to all federal, state and local government web resources and services.